Alcanara — ZGEA3 — position and weather

sailwx.info

Track history (hours):
 
Tides and Currents Weather Stations Pressure Air Temp Water Temp Dewpoint Dewpoint Depression Visibility Wind Speed Wind Dir Waves Ship Positions

Alcanara

Last reported at 2018-May-15 14:19 UTC. Time now 2018-May-22 18:00 UTC.
Position N 39°13' E 009°07'.

Length 31 m.

Type: Pleasure craft. MMSI: 319066100.

Date/timePositionNaut miles runAvg speedWind from/ knotsBaromVisibWave heightAir tempDewpointWater temp
2018-May-15 14:19N 39°13' E 009°07'0 0.0
2018-May-15 13:58N 39°13' E 009°07'0 0.0
2018-May-15 13:22N 39°13' E 009°07'0 0.0
2018-May-15 12:59N 39°13' E 009°07'0 0.0
2018-May-15 12:26N 39°13' E 009°07'0 0.0
2018-May-15 11:59N 39°13' E 009°07'0 0.0
2018-May-15 11:30N 39°13' E 009°07'0 0.0
2018-May-15 11:00N 39°13' E 009°07'0 0.0
2018-May-15 10:28N 39°13' E 009°07'0 0.0
2018-May-15 09:58N 39°13' E 009°07'0 0.0
2018-May-15 09:29N 39°13' E 009°07'0 0.0
2018-May-15 08:59N 39°13' E 009°07'0 0.0
2018-May-15 08:29N 39°13' E 009°07'0 0.0
2018-May-15 08:00N 39°13' E 009°07'0 0.0
2018-May-15 07:30N 39°13' E 009°07'0 0.0
2018-May-15 07:01N 39°13' E 009°07'0 0.0
2018-May-15 06:28N 39°13' E 009°07'0 0.0
2018-May-15 05:58N 39°13' E 009°07'0 0.0
2018-May-15 05:29N 39°13' E 009°07'0 0.0
2018-May-15 04:59N 39°13' E 009°07'0 0.0
2018-May-15 04:30N 39°13' E 009°07'0 0.0
2018-May-15 04:00N 39°13' E 009°07'0 0.0
2018-May-15 03:30N 39°13' E 009°07'0 0.0
2018-May-15 02:58N 39°13' E 009°07'0 0.0
2018-May-15 02:28N 39°13' E 009°07'0 0.0
2018-May-15 01:59N 39°13' E 009°07'0 0.0
2018-May-15 01:29N 39°13' E 009°07'0 0.0
2018-May-15 00:56N 39°13' E 009°07'0 0.0
2018-May-15 00:30N 39°13' E 009°07'0 0.0
2018-May-15 00:00N 39°13' E 009°07'0 0.0
2018-May-14 23:25N 39°13' E 009°07'0 0.0
2018-May-14 22:55N 39°13' E 009°07'0 0.0
2018-May-14 22:28N 39°13' E 009°07'0 0.0
2018-May-14 21:59N 39°13' E 009°07'0 0.0
2018-May-14 21:29N 39°13' E 009°07'0 0.0
2018-May-14 21:00N 39°13' E 009°07'0 0.0
2018-May-14 20:30N 39°13' E 009°07'0 0.0
2018-May-14 20:00N 39°13' E 009°07'0 0.0
2018-May-14 19:28N 39°13' E 009°07'0 0.0
2018-May-14 18:58N 39°13' E 009°07'0 0.0
2018-May-14 18:29N 39°13' E 009°07'0 0.0
2018-May-14 17:59N 39°13' E 009°07'0 0.0
2018-May-14 17:29N 39°13' E 009°07'0 0.0
2018-May-14 17:00N 39°13' E 009°07'0 0.0
2018-May-14 16:30N 39°13' E 009°07'0 0.0
2018-May-14 15:58N 39°13' E 009°07'0 0.0
2018-May-14 15:28N 39°13' E 009°07'0 0.0
2018-May-14 14:50N 39°13' E 009°07'0 0.0
2018-May-14 14:29N 39°13' E 009°07'0 0.0
2018-May-14 13:12N 39°13' E 009°07'0 0.0
2018-May-14 13:00N 39°13' E 009°07'3 6.9
2018-May-14 12:31N 39°09' E 009°07'3 6.8
2018-May-14 12:00N 39°06' E 009°07'510.4
2018-May-14 11:29N 39°01' E 009°05'14 7.2
2018-May-14 09:32N 38°49' E 008°55'0 9.2
2018-May-14 09:29N 38°49' E 008°55'5 0.2
2018-May-13 10:34N 38°54' E 008°55'111.2
2018-May-13 10:29N 38°55' E 008°56'511.1
2018-May-13 10:00N 38°58' E 009°01'1 0.2
2018-May-13 05:27N 38°59' E 009°01'0 0.0
2018-May-13 04:58N 38°59' E 009°01'0 0.0
2018-May-13 03:29N 38°59' E 009°01'0 0.0
2018-May-13 02:38N 38°59' E 009°01'0 0.0
2018-May-13 02:12N 38°59' E 009°01'0 0.0
2018-May-13 01:57N 38°59' E 009°01'0 0.0
2018-May-12 20:23N 38°59' E 009°01'0 0.0
2018-May-12 19:53N 38°59' E 009°01'0 0.0
2018-May-12 18:06N 38°59' E 009°01'0 0.0
2018-May-12 14:04N 38°59' E 009°01'0 0.0
2018-May-12 12:14N 38°59' E 009°01'0 0.0
2018-May-12 11:53N 38°59' E 009°01'0 0.0
2018-May-12 09:31N 38°59' E 009°01'0 0.0
2018-May-12 09:02N 38°59' E 009°01'0 0.0
2018-May-12 08:35N 38°59' E 009°01'0 0.0
2018-May-12 08:20N 38°59' E 009°01'0 0.0
2018-May-12 07:51N 38°59' E 009°01'0 0.0
2018-May-12 07:30N 38°59' E 009°01'0 0.0
2018-May-12 07:00N 38°59' E 009°01'0 0.0
2018-May-12 06:28N 38°59' E 009°01'0 0.0
2018-May-12 05:58N 38°59' E 009°01'0 0.0
2018-May-12 05:20N 38°59' E 009°01'0 0.0
2018-May-12 04:59N 38°59' E 009°01'0 0.0
2018-May-12 04:24N 38°59' E 009°01'0 0.0
2018-May-12 04:00N 38°59' E 009°01'0 0.0
2018-May-12 03:27N 38°59' E 009°01'0 0.0
2018-May-12 02:01N 38°59' E 009°01'0 0.0
2018-May-12 01:50N 38°59' E 009°01'0 0.0
2018-May-12 00:45N 38°59' E 009°01'0 0.0
2018-May-12 00:30N 38°59' E 009°01'0 0.0
2018-May-11 23:57N 38°59' E 009°01'0 0.0
2018-May-11 23:30N 38°59' E 009°01'0 0.0
2018-May-11 22:58N 38°59' E 009°01'0 0.0
2018-May-11 22:28N 38°59' E 009°01'0 0.0
2018-May-11 21:56N 38°59' E 009°01'0 0.0
2018-May-11 21:29N 38°59' E 009°01'0 0.0
2018-May-11 20:51N 38°59' E 009°01'0 0.0
2018-May-11 20:18N 38°59' E 009°01'0 0.0
2018-May-11 18:20N 38°59' E 009°01'0 0.0
2018-May-11 15:52N 38°59' E 009°01'0 0.0
2018-May-11 15:28N 38°59' E 009°01'0 0.0
2018-May-11 15:00N 38°59' E 009°01'3 5.3
2018-May-11 14:29N 39°01' E 009°04'4 7.4
2018-May-11 14:00N 39°03' E 009°08'4 7.3
2018-May-11 13:29N 39°05' E 009°12'5 9.0
2018-May-11 12:56N 39°07' E 009°18'1 2.3
2018-May-11 12:27N 39°08' E 009°19'5 9.4
2018-May-11 11:58N 39°07' E 009°13'2 5.2
2018-May-11 11:30N 39°07' E 009°10'5 9.8
2018-May-11 11:00N 39°12' E 009°06'1 2.1
2018-May-11 10:26N 39°13' E 009°07'0 0.0
2018-May-11 09:59N 39°13' E 009°07'0 0.0
2018-May-11 09:29N 39°13' E 009°07'0 0.0
2018-May-11 09:00N 39°13' E 009°07'0 0.0
2018-May-11 08:27N 39°13' E 009°07'0 0.0
2018-May-11 07:55N 39°13' E 009°07'0 0.0
2018-May-11 07:28N 39°13' E 009°07'0 0.0
2018-May-11 06:58N 39°13' E 009°07'0 0.0
2018-May-11 06:29N 39°13' E 009°07'0 0.0
2018-May-11 05:47N 39°13' E 009°07'0 0.0
2018-May-11 05:30N 39°13' E 009°07'0 0.0
2018-May-11 05:00N 39°13' E 009°07'0 0.0
2018-May-11 04:25N 39°13' E 009°07'0 0.0
2018-May-11 03:58N 39°13' E 009°07'0 0.0
2018-May-11 03:28N 39°13' E 009°07'0 0.0
2018-May-11 02:59N 39°13' E 009°07'0 0.0
2018-May-11 02:29N 39°13' E 009°07'0 0.0
2018-May-11 01:59N 39°13' E 009°07'0 0.0
2018-May-11 01:30N 39°13' E 009°07'0 0.0
2018-May-11 01:00N 39°13' E 009°07'0 0.0
2018-May-11 00:28N 39°13' E 009°07'0 0.0
2018-May-10 23:55N 39°13' E 009°07'0 0.0
2018-May-10 23:28N 39°13' E 009°07'0 0.0
2018-May-10 22:59N 39°13' E 009°07'0 0.0
2018-May-10 22:29N 39°13' E 009°07'0 0.0
2018-May-10 22:00N 39°13' E 009°07'0 0.0
2018-May-10 21:30N 39°13' E 009°07'0 0.0
2018-May-10 21:00N 39°13' E 009°07'0 0.0
2018-May-10 20:28N 39°13' E 009°07'0 0.0
2018-May-10 19:58N 39°13' E 009°07'0 0.0
2018-May-10 19:29N 39°13' E 009°07'0 0.0
2018-May-10 18:59N 39°13' E 009°07'0 0.0
2018-May-10 18:30N 39°13' E 009°07'0 0.0
2018-May-10 18:00N 39°13' E 009°07'0 0.0
2018-May-10 17:30N 39°13' E 009°07'0 0.0
2018-May-10 16:58N 39°13' E 009°07'0 0.0
2018-May-10 16:22N 39°13' E 009°07'0 0.0
2018-May-10 15:59N 39°13' E 009°07'0 0.0
2018-May-10 15:29N 39°13' E 009°07'0 0.0
2018-May-10 14:59N 39°13' E 009°07'0 0.0
2018-May-10 14:30N 39°13' E 009°07'0 0.0
2018-May-10 14:00N 39°13' E 009°07'0 0.0
2018-May-10 13:28N 39°13' E 009°07'0 0.0
2018-May-10 12:58N 39°13' E 009°07'0 0.0
2018-May-10 12:28N 39°13' E 009°07'0 0.0
2018-May-10 11:53N 39°13' E 009°07'0 0.0
2018-May-10 11:29N 39°13' E 009°07'0 0.0
2018-May-10 11:00N 39°13' E 009°07'0 0.0
2018-May-10 10:30N 39°13' E 009°07'0 0.0
2018-May-10 10:00N 39°13' E 009°07'0 0.0
2018-May-10 09:28N 39°13' E 009°07'0 0.0
2018-May-10 08:58N 39°13' E 009°07'0 0.0
2018-May-10 08:29N 39°13' E 009°07'0 0.0
2018-May-10 07:59N 39°13' E 009°07'0 0.0
2018-May-10 07:29N 39°13' E 009°07'0 0.0
2018-May-10 07:00N 39°13' E 009°07'0 0.0
2018-May-10 06:30N 39°13' E 009°07'0 0.0
2018-May-10 05:58N 39°13' E 009°07'0 0.0
2018-May-10 05:25N 39°13' E 009°07'0 0.0
2018-May-10 04:56N 39°13' E 009°07'0 0.0
2018-May-10 04:29N 39°13' E 009°07'0 0.0
2018-May-10 03:59N 39°13' E 009°07'0 0.0
2018-May-10 03:30N 39°13' E 009°07'0 0.0
2018-May-10 03:00N 39°13' E 009°07'0 0.0
2018-May-10 02:30N 39°13' E 009°07'0 0.0
2018-May-10 01:58N 39°13' E 009°07'0 0.0
2018-May-10 01:28N 39°13' E 009°07'0 0.0
2018-May-10 00:59N 39°13' E 009°07'0 0.0
2018-May-10 00:26N 39°13' E 009°07'0 0.0
2018-May-10 00:00N 39°13' E 009°07'0 0.0
2018-May-09 23:30N 39°13' E 009°07'0 0.0
2018-May-09 23:00N 39°13' E 009°07'0 0.0
2018-May-09 22:28N 39°13' E 009°07'0 0.0
2018-May-09 21:58N 39°13' E 009°07'0 0.0
2018-May-09 21:29N 39°13' E 009°07'0 0.0
2018-May-09 20:59N 39°13' E 009°07'0 0.0
2018-May-09 20:29N 39°13' E 009°07'1 2.1
2018-May-09 20:00N 39°12' E 009°07'3 5.3
2018-May-09 19:30N 39°09' E 009°07'4 7.5
2018-May-09 18:59N 39°05' E 009°08'29610.1
2018-May-08 13:48N 39°21' E 002°47'310.6
2018-May-08 13:31N 39°24' E 002°44'510.4
2018-May-08 13:00N 39°29' E 002°42'510.2
2018-May-08 12:30N 39°33' E 002°39'1 1.6
2018-May-08 11:58N 39°34' E 002°38'0 0.0
2018-May-08 11:28N 39°34' E 002°38'0 0.0
2018-May-08 10:59N 39°34' E 002°38'0 0.0
2018-May-08 10:29N 39°34' E 002°38'0 0.0
2018-May-08 09:59N 39°34' E 002°38'0 0.0
2018-May-08 09:30N 39°34' E 002°38'0 0.7
2018-May-08 08:55N 39°34' E 002°38'0 0.0
2018-May-08 08:29N 39°34' E 002°38'0 0.0
2018-May-08 07:56N 39°34' E 002°38'0 0.0
2018-May-08 07:29N 39°34' E 002°38'0 0.0
2018-May-08 06:54N 39°34' E 002°38'0 0.0
2018-May-08 06:30N 39°34' E 002°38'0 0.0
2018-May-08 05:58N 39°34' E 002°38'0 0.0
2018-May-08 05:28N 39°34' E 002°38'0 0.0
2018-May-08 04:58N 39°34' E 002°38'0 0.0
2018-May-08 04:26N 39°34' E 002°38'0 0.0
2018-May-08 03:59N 39°34' E 002°38'0 0.0
2018-May-08 03:30N 39°34' E 002°38'0 0.0
2018-May-08 03:00N 39°34' E 002°38'0 0.0
2018-May-08 02:30N 39°34' E 002°38'0 0.0
2018-May-08 01:58N 39°34' E 002°38'0 0.0
2018-May-08 01:28N 39°34' E 002°38'0 0.0
2018-May-08 00:59N 39°34' E 002°38'0 0.0
2018-May-08 00:29N 39°34' E 002°38'0 0.0
2018-May-07 23:59N 39°34' E 002°38'0 0.0
2018-May-07 23:30N 39°34' E 002°38'0 0.0
2018-May-07 23:00N 39°34' E 002°38'0 0.0
2018-May-07 22:28N 39°34' E 002°38'0 0.0
2018-May-07 21:58N 39°34' E 002°38'0 0.0
2018-May-07 21:23N 39°34' E 002°38'0 0.0
2018-May-07 20:59N 39°34' E 002°38'0 0.0
2018-May-07 20:29N 39°34' E 002°38'0 0.0
2018-May-07 20:00N 39°34' E 002°38'0 0.0
2018-May-07 19:18N 39°34' E 002°38'0 0.0
2018-May-07 19:01N 39°34' E 002°38'0 0.0
2018-May-07 18:28N 39°34' E 002°38'0 0.0
2018-May-07 17:58N 39°34' E 002°38'0 0.0
2018-May-07 17:29N 39°34' E 002°38'0 0.0
2018-May-07 16:59N 39°34' E 002°38'0 0.0
2018-May-07 16:30N 39°34' E 002°38'0 0.0
2018-May-07 16:00N 39°34' E 002°38'0 0.0
2018-May-07 15:27N 39°34' E 002°38'0 0.0
2018-May-07 14:58N 39°34' E 002°38'0 0.0
2018-May-07 14:28N 39°34' E 002°38'0 0.0
2018-May-07 13:59N 39°34' E 002°38'0 0.0
2018-May-07 13:26N 39°34' E 002°38'0 0.0
2018-May-07 12:59N 39°34' E 002°38'0 0.0
2018-May-07 12:30N 39°34' E 002°38'0 0.0
2018-May-07 12:00N 39°34' E 002°38'0 0.0
2018-May-07 11:28N 39°34' E 002°38'0 0.0
2018-May-07 10:58N 39°34' E 002°38'0 0.0
2018-May-07 10:28N 39°34' E 002°38'0 0.0
2018-May-07 09:59N 39°34' E 002°38'0 0.0
2018-May-07 09:29N 39°34' E 002°38'0 0.0
2018-May-07 09:00N 39°34' E 002°38'0 0.0
2018-May-07 08:30N 39°34' E 002°38'0 0.0
2018-May-07 08:00N 39°34' E 002°38'0 0.0
2018-May-07 07:28N 39°34' E 002°38'0 0.0
2018-May-07 06:58N 39°34' E 002°38'0 0.0
2018-May-07 06:26N 39°34' E 002°38'0 0.0
2018-May-07 05:53N 39°34' E 002°38'0 0.0
2018-May-07 05:29N 39°34' E 002°38'0 0.0
2018-May-07 05:00N 39°34' E 002°38'0 0.0
2018-May-07 04:30N 39°34' E 002°38'0 0.0
2018-May-07 03:58N 39°34' E 002°38'0 0.0
2018-May-07 03:28N 39°34' E 002°38'0 0.0
2018-May-07 02:58N 39°34' E 002°38'0 0.0
2018-May-07 02:26N 39°34' E 002°38'0 0.0
2018-May-07 01:59N 39°34' E 002°38'0 0.0
2018-May-07 01:27N 39°34' E 002°38'0 0.0
2018-May-07 01:00N 39°34' E 002°38'0 0.0
2018-May-07 00:30N 39°34' E 002°38'0 0.0
2018-May-06 23:58N 39°34' E 002°38'0 0.0
2018-May-06 23:28N 39°34' E 002°38'0 0.0
2018-May-06 22:59N 39°34' E 002°38'0 0.0
2018-May-06 22:29N 39°34' E 002°38'0 0.0
2018-May-06 22:00N 39°34' E 002°38'0 0.0
2018-May-06 21:27N 39°34' E 002°38'0 0.0
2018-May-06 21:00N 39°34' E 002°38'0 0.0
2018-May-06 20:28N 39°34' E 002°38'0 0.0
2018-May-06 19:58N 39°34' E 002°38'0 0.0
2018-May-06 19:29N 39°34' E 002°38'0 0.0
2018-May-06 18:56N 39°34' E 002°38'0 0.0
2018-May-06 18:29N 39°34' E 002°38'0 0.0
2018-May-06 18:00N 39°34' E 002°38'0 0.0
2018-May-06 17:30N 39°34' E 002°38'0 0.0
2018-May-06 16:58N 39°34' E 002°38'0 0.0
2018-May-06 16:28N 39°34' E 002°38'0 0.0
2018-May-06 15:58N 39°34' E 002°38'0 0.0
2018-May-06 15:29N 39°34' E 002°38'0 0.0
2018-May-06 14:59N 39°34' E 002°38'0 0.0
2018-May-06 14:30N 39°34' E 002°38'0 0.0
2018-May-06 14:00N 39°34' E 002°38'0 0.0
2018-May-06 13:30N 39°34' E 002°38'0 0.0
2018-May-06 12:58N 39°34' E 002°38'0 0.0
2018-May-06 12:28N 39°34' E 002°38'0 0.0
2018-May-06 11:59N 39°34' E 002°38'0 0.0
2018-May-06 11:29N 39°34' E 002°38'0 0.0
2018-May-06 10:59N 39°34' E 002°38'0 0.0
2018-May-06 10:30N 39°34' E 002°38'0 0.0
2018-May-06 10:00N 39°34' E 002°38'0 0.0
2018-May-06 09:28N 39°34' E 002°38'0 0.0
2018-May-06 08:58N 39°34' E 002°38'0 0.0
2018-May-06 08:28N 39°34' E 002°38'0 0.0
2018-May-06 07:59N 39°34' E 002°38'0 0.0
2018-May-06 07:29N 39°34' E 002°38'0 0.0
2018-May-06 07:00N 39°34' E 002°38'0 0.0
2018-May-06 06:30N 39°34' E 002°38'0 0.0
2018-May-06 06:01N 39°34' E 002°38'0 0.0
2018-May-06 05:28N 39°34' E 002°38'0 0.0
2018-May-06 04:55N 39°34' E 002°38'0 0.0
2018-May-06 04:29N 39°34' E 002°38'0 0.0
2018-May-06 03:59N 39°34' E 002°38'0 0.0
2018-May-06 03:30N 39°34' E 002°38'0 0.0
2018-May-06 03:00N 39°34' E 002°38'0 0.0
2018-May-06 02:30N 39°34' E 002°38'0 0.0
2018-May-06 01:55N 39°34' E 002°38'0 0.0
2018-May-06 01:25N 39°34' E 002°38'0 0.0
2018-May-06 00:59N 39°34' E 002°38'0 0.0
2018-May-06 00:29N 39°34' E 002°38'0 0.0
2018-May-05 23:59N 39°34' E 002°38'0 0.0
2018-May-05 23:30N 39°34' E 002°38'0 0.0
2018-May-05 23:00N 39°34' E 002°38'0 0.0
2018-May-05 22:28N 39°34' E 002°38'0 0.0
2018-May-05 21:58N 39°34' E 002°38'0 0.0
2018-May-05 21:25N 39°34' E 002°38'0 0.0
2018-May-05 20:56N 39°34' E 002°38'0 0.0
2018-May-05 20:29N 39°34' E 002°38'0 0.0
2018-May-05 20:00N 39°34' E 002°38'0 0.0
2018-May-05 19:30N 39°34' E 002°38'0 0.0
2018-May-05 19:00N 39°34' E 002°38'0 0.0
2018-May-05 18:28N 39°34' E 002°38'0 0.0
2018-May-05 17:58N 39°34' E 002°38'0 0.0
2018-May-05 17:29N 39°34' E 002°38'0 0.0
2018-May-05 16:59N 39°34' E 002°38'0 0.0
2018-May-05 16:27N 39°34' E 002°38'0 0.0
2018-May-05 16:00N 39°34' E 002°38'0 0.0
2018-May-05 15:27N 39°34' E 002°38'0 0.0
2018-May-05 14:58N 39°34' E 002°38'0 0.0
2018-May-05 14:28N 39°34' E 002°38'  
Track history (hours):
 
Tides and Currents Weather Stations Pressure Air Temp Water Temp Dewpoint Dewpoint Depression Visibility Wind Speed Wind Dir Waves Ship Positions

Alcanara

Last reported at 2018-May-15 14:19 UTC. Time now 2018-May-22 18:00 UTC.
Position N 39°13' E 009°07'.

Length 31 m.

Type: Pleasure craft. MMSI: 319066100.

Date/timePositionNaut miles runAvg speedWind from/ knotsBaromVisibWave heightAir tempDewpointWater temp
2018-May-15 14:19N 39°13' E 009°07'0 0.0
2018-May-15 13:58N 39°13' E 009°07'0 0.0
2018-May-15 13:22N 39°13' E 009°07'0 0.0
2018-May-15 12:59N 39°13' E 009°07'0 0.0
2018-May-15 12:26N 39°13' E 009°07'0 0.0
2018-May-15 11:59N 39°13' E 009°07'0 0.0
2018-May-15 11:30N 39°13' E 009°07'0 0.0
2018-May-15 11:00N 39°13' E 009°07'0 0.0
2018-May-15 10:28N 39°13' E 009°07'0 0.0
2018-May-15 09:58N 39°13' E 009°07'0 0.0
2018-May-15 09:29N 39°13' E 009°07'0 0.0
2018-May-15 08:59N 39°13' E 009°07'0 0.0
2018-May-15 08:29N 39°13' E 009°07'0 0.0
2018-May-15 08:00N 39°13' E 009°07'0 0.0
2018-May-15 07:30N 39°13' E 009°07'0 0.0
2018-May-15 07:01N 39°13' E 009°07'0 0.0
2018-May-15 06:28N 39°13' E 009°07'0 0.0
2018-May-15 05:58N 39°13' E 009°07'0 0.0
2018-May-15 05:29N 39°13' E 009°07'0 0.0
2018-May-15 04:59N 39°13' E 009°07'0 0.0
2018-May-15 04:30N 39°13' E 009°07'0 0.0
2018-May-15 04:00N 39°13' E 009°07'0 0.0
2018-May-15 03:30N 39°13' E 009°07'0 0.0
2018-May-15 02:58N 39°13' E 009°07'0 0.0
2018-May-15 02:28N 39°13' E 009°07'0 0.0
2018-May-15 01:59N 39°13' E 009°07'0 0.0
2018-May-15 01:29N 39°13' E 009°07'0 0.0
2018-May-15 00:56N 39°13' E 009°07'0 0.0
2018-May-15 00:30N 39°13' E 009°07'0 0.0
2018-May-15 00:00N 39°13' E 009°07'0 0.0
2018-May-14 23:25N 39°13' E 009°07'0 0.0
2018-May-14 22:55N 39°13' E 009°07'0 0.0
2018-May-14 22:28N 39°13' E 009°07'0 0.0
2018-May-14 21:59N 39°13' E 009°07'0 0.0
2018-May-14 21:29N 39°13' E 009°07'0 0.0
2018-May-14 21:00N 39°13' E 009°07'0 0.0
2018-May-14 20:30N 39°13' E 009°07'0 0.0
2018-May-14 20:00N 39°13' E 009°07'0 0.0
2018-May-14 19:28N 39°13' E 009°07'0 0.0
2018-May-14 18:58N 39°13' E 009°07'0 0.0
2018-May-14 18:29N 39°13' E 009°07'0 0.0
2018-May-14 17:59N 39°13' E 009°07'0 0.0
2018-May-14 17:29N 39°13' E 009°07'0 0.0
2018-May-14 17:00N 39°13' E 009°07'0 0.0
2018-May-14 16:30N 39°13' E 009°07'0 0.0
2018-May-14 15:58N 39°13' E 009°07'0 0.0
2018-May-14 15:28N 39°13' E 009°07'0 0.0
2018-May-14 14:50N 39°13' E 009°07'0 0.0
2018-May-14 14:29N 39°13' E 009°07'0 0.0
2018-May-14 13:12N 39°13' E 009°07'0 0.0
2018-May-14 13:00N 39°13' E 009°07'3 6.9
2018-May-14 12:31N 39°09' E 009°07'3 6.8
2018-May-14 12:00N 39°06' E 009°07'510.4
2018-May-14 11:29N 39°01' E 009°05'14 7.2
2018-May-14 09:32N 38°49' E 008°55'0 9.2
2018-May-14 09:29N 38°49' E 008°55'5 0.2
2018-May-13 10:34N 38°54' E 008°55'111.2
2018-May-13 10:29N 38°55' E 008°56'511.1
2018-May-13 10:00N 38°58' E 009°01'1 0.2
2018-May-13 05:27N 38°59' E 009°01'0 0.0
2018-May-13 04:58N 38°59' E 009°01'0 0.0
2018-May-13 03:29N 38°59' E 009°01'0 0.0
2018-May-13 02:38N 38°59' E 009°01'0 0.0
2018-May-13 02:12N 38°59' E 009°01'0 0.0
2018-May-13 01:57N 38°59' E 009°01'0 0.0
2018-May-12 20:23N 38°59' E 009°01'0 0.0
2018-May-12 19:53N 38°59' E 009°01'0 0.0
2018-May-12 18:06N 38°59' E 009°01'0 0.0
2018-May-12 14:04N 38°59' E 009°01'0 0.0
2018-May-12 12:14N 38°59' E 009°01'0 0.0
2018-May-12 11:53N 38°59' E 009°01'0 0.0
2018-May-12 09:31N 38°59' E 009°01'0 0.0
2018-May-12 09:02N 38°59' E 009°01'0 0.0
2018-May-12 08:35N 38°59' E 009°01'0 0.0
2018-May-12 08:20N 38°59' E 009°01'0 0.0
2018-May-12 07:51N 38°59' E 009°01'0 0.0
2018-May-12 07:30N 38°59' E 009°01'0 0.0
2018-May-12 07:00N 38°59' E 009°01'0 0.0
2018-May-12 06:28N 38°59' E 009°01'0 0.0
2018-May-12 05:58N 38°59' E 009°01'0 0.0
2018-May-12 05:20N 38°59' E 009°01'0 0.0
2018-May-12 04:59N 38°59' E 009°01'0 0.0
2018-May-12 04:24N 38°59' E 009°01'0 0.0
2018-May-12 04:00N 38°59' E 009°01'0 0.0
2018-May-12 03:27N 38°59' E 009°01'0 0.0
2018-May-12 02:01N 38°59' E 009°01'0 0.0
2018-May-12 01:50N 38°59' E 009°01'0 0.0
2018-May-12 00:45N 38°59' E 009°01'0 0.0
2018-May-12 00:30N 38°59' E 009°01'0 0.0
2018-May-11 23:57N 38°59' E 009°01'0 0.0
2018-May-11 23:30N 38°59' E 009°01'0 0.0
2018-May-11 22:58N 38°59' E 009°01'0 0.0
2018-May-11 22:28N 38°59' E 009°01'0 0.0
2018-May-11 21:56N 38°59' E 009°01'0 0.0
2018-May-11 21:29N 38°59' E 009°01'0 0.0
2018-May-11 20:51N 38°59' E 009°01'0 0.0
2018-May-11 20:18N 38°59' E 009°01'0 0.0
2018-May-11 18:20N 38°59' E 009°01'0 0.0
2018-May-11 15:52N 38°59' E 009°01'0 0.0
2018-May-11 15:28N 38°59' E 009°01'0 0.0
2018-May-11 15:00N 38°59' E 009°01'3 5.3
2018-May-11 14:29N 39°01' E 009°04'4 7.4
2018-May-11 14:00N 39°03' E 009°08'4 7.3
2018-May-11 13:29N 39°05' E 009°12'5 9.0
2018-May-11 12:56N 39°07' E 009°18'1 2.3
2018-May-11 12:27N 39°08' E 009°19'5 9.4
2018-May-11 11:58N 39°07' E 009°13'2 5.2
2018-May-11 11:30N 39°07' E 009°10'5 9.8
2018-May-11 11:00N 39°12' E 009°06'1 2.1
2018-May-11 10:26N 39°13' E 009°07'0 0.0
2018-May-11 09:59N 39°13' E 009°07'0 0.0
2018-May-11 09:29N 39°13' E 009°07'0 0.0
2018-May-11 09:00N 39°13' E 009°07'0 0.0
2018-May-11 08:27N 39°13' E 009°07'0 0.0
2018-May-11 07:55N 39°13' E 009°07'0 0.0
2018-May-11 07:28N 39°13' E 009°07'0 0.0
2018-May-11 06:58N 39°13' E 009°07'0 0.0
2018-May-11 06:29N 39°13' E 009°07'0 0.0
2018-May-11 05:47N 39°13' E 009°07'0 0.0
2018-May-11 05:30N 39°13' E 009°07'0 0.0
2018-May-11 05:00N 39°13' E 009°07'0 0.0
2018-May-11 04:25N 39°13' E 009°07'0 0.0
2018-May-11 03:58N 39°13' E 009°07'0 0.0
2018-May-11 03:28N 39°13' E 009°07'0 0.0
2018-May-11 02:59N 39°13' E 009°07'0 0.0
2018-May-11 02:29N 39°13' E 009°07'0 0.0
2018-May-11 01:59N 39°13' E 009°07'0 0.0
2018-May-11 01:30N 39°13' E 009°07'0 0.0
2018-May-11 01:00N 39°13' E 009°07'0 0.0
2018-May-11 00:28N 39°13' E 009°07'0 0.0
2018-May-10 23:55N 39°13' E 009°07'0 0.0
2018-May-10 23:28N 39°13' E 009°07'0 0.0
2018-May-10 22:59N 39°13' E 009°07'0 0.0
2018-May-10 22:29N 39°13' E 009°07'0 0.0
2018-May-10 22:00N 39°13' E 009°07'0 0.0
2018-May-10 21:30N 39°13' E 009°07'0 0.0
2018-May-10 21:00N 39°13' E 009°07'0 0.0
2018-May-10 20:28N 39°13' E 009°07'0 0.0
2018-May-10 19:58N 39°13' E 009°07'0 0.0
2018-May-10 19:29N 39°13' E 009°07'0 0.0
2018-May-10 18:59N 39°13' E 009°07'0 0.0
2018-May-10 18:30N 39°13' E 009°07'0 0.0
2018-May-10 18:00N 39°13' E 009°07'0 0.0
2018-May-10 17:30N 39°13' E 009°07'0 0.0
2018-May-10 16:58N 39°13' E 009°07'0 0.0
2018-May-10 16:22N 39°13' E 009°07'0 0.0
2018-May-10 15:59N 39°13' E 009°07'0 0.0
2018-May-10 15:29N 39°13' E 009°07'0 0.0
2018-May-10 14:59N 39°13' E 009°07'0 0.0
2018-May-10 14:30N 39°13' E 009°07'0 0.0
2018-May-10 14:00N 39°13' E 009°07'0 0.0
2018-May-10 13:28N 39°13' E 009°07'0 0.0
2018-May-10 12:58N 39°13' E 009°07'0 0.0
2018-May-10 12:28N 39°13' E 009°07'0 0.0
2018-May-10 11:53N 39°13' E 009°07'0 0.0
2018-May-10 11:29N 39°13' E 009°07'0 0.0
2018-May-10 11:00N 39°13' E 009°07'0 0.0
2018-May-10 10:30N 39°13' E 009°07'0 0.0
2018-May-10 10:00N 39°13' E 009°07'0 0.0
2018-May-10 09:28N 39°13' E 009°07'0 0.0
2018-May-10 08:58N 39°13' E 009°07'0 0.0
2018-May-10 08:29N 39°13' E 009°07'0 0.0
2018-May-10 07:59N 39°13' E 009°07'0 0.0
2018-May-10 07:29N 39°13' E 009°07'0 0.0
2018-May-10 07:00N 39°13' E 009°07'0 0.0
2018-May-10 06:30N 39°13' E 009°07'0 0.0
2018-May-10 05:58N 39°13' E 009°07'0 0.0
2018-May-10 05:25N 39°13' E 009°07'0 0.0
2018-May-10 04:56N 39°13' E 009°07'0 0.0
2018-May-10 04:29N 39°13' E 009°07'0 0.0
2018-May-10 03:59N 39°13' E 009°07'0 0.0
2018-May-10 03:30N 39°13' E 009°07'0 0.0
2018-May-10 03:00N 39°13' E 009°07'0 0.0
2018-May-10 02:30N 39°13' E 009°07'0 0.0
2018-May-10 01:58N 39°13' E 009°07'0 0.0
2018-May-10 01:28N 39°13' E 009°07'0 0.0
2018-May-10 00:59N 39°13' E 009°07'0 0.0
2018-May-10 00:26N 39°13' E 009°07'0 0.0
2018-May-10 00:00N 39°13' E 009°07'0 0.0
2018-May-09 23:30N 39°13' E 009°07'0 0.0
2018-May-09 23:00N 39°13' E 009°07'0 0.0
2018-May-09 22:28N 39°13' E 009°07'0 0.0
2018-May-09 21:58N 39°13' E 009°07'0 0.0
2018-May-09 21:29N 39°13' E 009°07'0 0.0
2018-May-09 20:59N 39°13' E 009°07'0 0.0
2018-May-09 20:29N 39°13' E 009°07'1 2.1
2018-May-09 20:00N 39°12' E 009°07'3 5.3
2018-May-09 19:30N 39°09' E 009°07'4 7.5
2018-May-09 18:59N 39°05' E 009°08'29610.1
2018-May-08 13:48N 39°21' E 002°47'310.6
2018-May-08 13:31N 39°24' E 002°44'510.4
2018-May-08 13:00N 39°29' E 002°42'510.2
2018-May-08 12:30N 39°33' E 002°39'1 1.6
2018-May-08 11:58N 39°34' E 002°38'0 0.0
2018-May-08 11:28N 39°34' E 002°38'0 0.0
2018-May-08 10:59N 39°34' E 002°38'0 0.0
2018-May-08 10:29N 39°34' E 002°38'0 0.0
2018-May-08 09:59N 39°34' E 002°38'0 0.0
2018-May-08 09:30N 39°34' E 002°38'0 0.7
2018-May-08 08:55N 39°34' E 002°38'0 0.0
2018-May-08 08:29N 39°34' E 002°38'0 0.0
2018-May-08 07:56N 39°34' E 002°38'0 0.0
2018-May-08 07:29N 39°34' E 002°38'0 0.0
2018-May-08 06:54N 39°34' E 002°38'0 0.0
2018-May-08 06:30N 39°34' E 002°38'0 0.0
2018-May-08 05:58N 39°34' E 002°38'0 0.0
2018-May-08 05:28N 39°34' E 002°38'0 0.0
2018-May-08 04:58N 39°34' E 002°38'0 0.0
2018-May-08 04:26N 39°34' E 002°38'0 0.0
2018-May-08 03:59N 39°34' E 002°38'0 0.0
2018-May-08 03:30N 39°34' E 002°38'0 0.0
2018-May-08 03:00N 39°34' E 002°38'0 0.0
2018-May-08 02:30N 39°34' E 002°38'0 0.0
2018-May-08 01:58N 39°34' E 002°38'0 0.0
2018-May-08 01:28N 39°34' E 002°38'0 0.0
2018-May-08 00:59N 39°34' E 002°38'0 0.0
2018-May-08 00:29N 39°34' E 002°38'0 0.0
2018-May-07 23:59N 39°34' E 002°38'0 0.0
2018-May-07 23:30N 39°34' E 002°38'0 0.0
2018-May-07 23:00N 39°34' E 002°38'0 0.0
2018-May-07 22:28N 39°34' E 002°38'0 0.0
2018-May-07 21:58N 39°34' E 002°38'0 0.0
2018-May-07 21:23N 39°34' E 002°38'0 0.0
2018-May-07 20:59N 39°34' E 002°38'0 0.0
2018-May-07 20:29N 39°34' E 002°38'0 0.0
2018-May-07 20:00N 39°34' E 002°38'0 0.0
2018-May-07 19:18N 39°34' E 002°38'0 0.0
2018-May-07 19:01N 39°34' E 002°38'0 0.0
2018-May-07 18:28N 39°34' E 002°38'0 0.0
2018-May-07 17:58N 39°34' E 002°38'0 0.0
2018-May-07 17:29N 39°34' E 002°38'0 0.0
2018-May-07 16:59N 39°34' E 002°38'0 0.0
2018-May-07 16:30N 39°34' E 002°38'0 0.0
2018-May-07 16:00N 39°34' E 002°38'0 0.0
2018-May-07 15:27N 39°34' E 002°38'0 0.0
2018-May-07 14:58N 39°34' E 002°38'0 0.0
2018-May-07 14:28N 39°34' E 002°38'0 0.0
2018-May-07 13:59N 39°34' E 002°38'0 0.0
2018-May-07 13:26N 39°34' E 002°38'0 0.0
2018-May-07 12:59N 39°34' E 002°38'0 0.0
2018-May-07 12:30N 39°34' E 002°38'0 0.0
2018-May-07 12:00N 39°34' E 002°38'0 0.0
2018-May-07 11:28N 39°34' E 002°38'0 0.0
2018-May-07 10:58N 39°34' E 002°38'0 0.0
2018-May-07 10:28N 39°34' E 002°38'0 0.0
2018-May-07 09:59N 39°34' E 002°38'0 0.0
2018-May-07 09:29N 39°34' E 002°38'0 0.0
2018-May-07 09:00N 39°34' E 002°38'0 0.0
2018-May-07 08:30N 39°34' E 002°38'0 0.0
2018-May-07 08:00N 39°34' E 002°38'0 0.0
2018-May-07 07:28N 39°34' E 002°38'0 0.0
2018-May-07 06:58N 39°34' E 002°38'0 0.0
2018-May-07 06:26N 39°34' E 002°38'0 0.0
2018-May-07 05:53N 39°34' E 002°38'0 0.0
2018-May-07 05:29N 39°34' E 002°38'0 0.0
2018-May-07 05:00N 39°34' E 002°38'0 0.0
2018-May-07 04:30N 39°34' E 002°38'0 0.0
2018-May-07 03:58N 39°34' E 002°38'0 0.0
2018-May-07 03:28N 39°34' E 002°38'0 0.0
2018-May-07 02:58N 39°34' E 002°38'0 0.0
2018-May-07 02:26N 39°34' E 002°38'0 0.0
2018-May-07 01:59N 39°34' E 002°38'0 0.0
2018-May-07 01:27N 39°34' E 002°38'0 0.0
2018-May-07 01:00N 39°34' E 002°38'0 0.0
2018-May-07 00:30N 39°34' E 002°38'0 0.0
2018-May-06 23:58N 39°34' E 002°38'0 0.0
2018-May-06 23:28N 39°34' E 002°38'0 0.0
2018-May-06 22:59N 39°34' E 002°38'0 0.0
2018-May-06 22:29N 39°34' E 002°38'0 0.0
2018-May-06 22:00N 39°34' E 002°38'0 0.0
2018-May-06 21:27N 39°34' E 002°38'0 0.0
2018-May-06 21:00N 39°34' E 002°38'0 0.0
2018-May-06 20:28N 39°34' E 002°38'0 0.0
2018-May-06 19:58N 39°34' E 002°38'0 0.0
2018-May-06 19:29N 39°34' E 002°38'0 0.0
2018-May-06 18:56N 39°34' E 002°38'0 0.0
2018-May-06 18:29N 39°34' E 002°38'0 0.0
2018-May-06 18:00N 39°34' E 002°38'0 0.0
2018-May-06 17:30N 39°34' E 002°38'0 0.0
2018-May-06 16:58N 39°34' E 002°38'0 0.0
2018-May-06 16:28N 39°34' E 002°38'0 0.0
2018-May-06 15:58N 39°34' E 002°38'0 0.0
2018-May-06 15:29N 39°34' E 002°38'0 0.0
2018-May-06 14:59N 39°34' E 002°38'0 0.0
2018-May-06 14:30N 39°34' E 002°38'0 0.0
2018-May-06 14:00N 39°34' E 002°38'0 0.0
2018-May-06 13:30N 39°34' E 002°38'0 0.0
2018-May-06 12:58N 39°34' E 002°38'0 0.0
2018-May-06 12:28N 39°34' E 002°38'0 0.0
2018-May-06 11:59N 39°34' E 002°38'0 0.0
2018-May-06 11:29N 39°34' E 002°38'0 0.0
2018-May-06 10:59N 39°34' E 002°38'0 0.0
2018-May-06 10:30N 39°34' E 002°38'0 0.0
2018-May-06 10:00N 39°34' E 002°38'0 0.0
2018-May-06 09:28N 39°34' E 002°38'0 0.0
2018-May-06 08:58N 39°34' E 002°38'0 0.0
2018-May-06 08:28N 39°34' E 002°38'0 0.0
2018-May-06 07:59N 39°34' E 002°38'0 0.0
2018-May-06 07:29N 39°34' E 002°38'0 0.0
2018-May-06 07:00N 39°34' E 002°38'0 0.0
2018-May-06 06:30N 39°34' E 002°38'0 0.0
2018-May-06 06:01N 39°34' E 002°38'0 0.0
2018-May-06 05:28N 39°34' E 002°38'0 0.0
2018-May-06 04:55N 39°34' E 002°38'0 0.0
2018-May-06 04:29N 39°34' E 002°38'0 0.0
2018-May-06 03:59N 39°34' E 002°38'0 0.0
2018-May-06 03:30N 39°34' E 002°38'0 0.0
2018-May-06 03:00N 39°34' E 002°38'0 0.0
2018-May-06 02:30N 39°34' E 002°38'0 0.0
2018-May-06 01:55N 39°34' E 002°38'0 0.0
2018-May-06 01:25N 39°34' E 002°38'0 0.0
2018-May-06 00:59N 39°34' E 002°38'0 0.0
2018-May-06 00:29N 39°34' E 002°38'0 0.0
2018-May-05 23:59N 39°34' E 002°38'0 0.0
2018-May-05 23:30N 39°34' E 002°38'0 0.0
2018-May-05 23:00N 39°34' E 002°38'0 0.0
2018-May-05 22:28N 39°34' E 002°38'0 0.0
2018-May-05 21:58N 39°34' E 002°38'0 0.0
2018-May-05 21:25N 39°34' E 002°38'0 0.0
2018-May-05 20:56N 39°34' E 002°38'0 0.0
2018-May-05 20:29N 39°34' E 002°38'0 0.0
2018-May-05 20:00N 39°34' E 002°38'0 0.0
2018-May-05 19:30N 39°34' E 002°38'0 0.0
2018-May-05 19:00N 39°34' E 002°38'0 0.0
2018-May-05 18:28N 39°34' E 002°38'0 0.0
2018-May-05 17:58N 39°34' E 002°38'0 0.0
2018-May-05 17:29N 39°34' E 002°38'0 0.0
2018-May-05 16:59N 39°34' E 002°38'0 0.0
2018-May-05 16:27N 39°34' E 002°38'0 0.0
2018-May-05 16:00N 39°34' E 002°38'0 0.0
2018-May-05 15:27N 39°34' E 002°38'0 0.0
2018-May-05 14:58N 39°34' E 002°38'0 0.0
2018-May-05 14:28N 39°34' E 002°38'  

Dump ship's entire track history